Time;durP1;ratioP1;P1;durP2;ratioP2;P2;SDS_P1;SDS_P2;PMS_P1;PMS_P2;Temp;Humidity;BMP_temperature;BMP_pressure;BME280_temperature;BME280_humidity;BME280_pressure;Samples;Min_cycle;Max_cycle;Signal;HPM_P1;HPM_P2
2022/02/20 00:00:50;;;;;;;;;;;;;;;29.64;20.43;100868.84;5076587;28;1897;-37
2022/02/20 00:03:17;;;;;;;;;;;;;;;29.24;20.74;100872.91;5078916;28;888;-38
2022/02/20 00:05:42;;;;;;;;;;;;;;;29.34;20.75;100884.22;5079312;28;862;-38
2022/02/20 00:08:08;;;;;;;;;;;;;;;29.32;20.65;100886.31;5079074;28;809;-37
2022/02/20 00:10:33;;;;;;;;;;;;;;;29.33;20.73;100884.41;5078652;28;1121;-38
2022/02/20 00:12:59;;;;;;;;;;;;;;;30.35;19.40;100883.25;5078926;28;821;-37
2022/02/20 00:15:24;;;;;;;;;;;;;;;30.45;19.30;100882.06;5076051;28;813;-37
2022/02/20 00:17:53;;;;;;;;;;;;;;;29.86;20.26;100891.34;5074608;28;1302;-36
2022/02/20 00:20:19;;;;;;;;;;;;;;;29.58;20.50;100890.25;5078772;28;1901;-38
2022/02/20 00:22:44;;;;;;;;;;;;;;;29.56;20.60;100895.03;5078832;28;892;-38
2022/02/20 00:25:09;;;;;;;;;;;;;;;29.52;20.82;100880.22;5079108;28;825;-38
2022/02/20 00:27:35;;;;;;;;;;;;;;;30.02;20.22;100871.19;5078782;28;904;-37
2022/02/20 00:30:00;;;;;;;;;;;;;;;30.55;19.14;100868.94;5079177;28;908;-37
2022/02/20 00:32:25;;;;;;;;;;;;;;;30.53;19.43;100865.59;5074380;28;1166;-38
2022/02/20 00:34:51;;;;;;;;;;;;;;;29.99;20.05;100874.31;5078510;28;845;-38
2022/02/20 00:37:16;;;;;;;;;;;;;;;29.65;20.52;100865.94;5078358;28;1500;-37
2022/02/20 00:39:41;;;;;;;;;;;;;;;29.43;20.93;100865.09;5078203;28;1898;-37
2022/02/20 00:42:06;;;;;;;;;;;;;;;29.39;20.85;100872.81;5077723;28;913;-37
2022/02/20 00:44:32;;;;;;;;;;;;;;;29.51;21.11;100867.69;5078467;28;774;-37
2022/02/20 00:46:57;;;;;;;;;;;;;;;29.51;21.16;100872.28;5074229;28;898;-37
2022/02/20 00:49:22;;;;;;;;;;;;;;;30.70;19.33;100871.47;5078104;28;838;-38
2022/02/20 00:51:48;;;;;;;;;;;;;;;30.59;19.22;100872.94;5077985;28;892;-37
2022/02/20 00:54:13;;;;;;;;;;;;;;;30.03;20.37;100872.84;5078241;28;821;-37
2022/02/20 00:56:38;;;;;;;;;;;;;;;29.76;20.71;100871.88;5078289;28;996;-37
2022/02/20 00:59:04;;;;;;;;;;;;;;;29.59;21.01;100872.16;5078084;28;813;-37
2022/02/20 01:01:29;;;;;;;;;;;;;;;29.65;20.87;100873.22;5076091;28;1902;-37
2022/02/20 01:03:54;;;;;;;;;;;;;;;30.65;19.47;100866.66;5077786;28;873;-37
2022/02/20 01:06:20;;;;;;;;;;;;;;;30.55;19.28;100860.78;5077765;28;793;-37
2022/02/20 01:08:46;;;;;;;;;;;;;;;30.32;19.80;100867.41;5078615;28;774;-37
2022/02/20 01:11:11;;;;;;;;;;;;;;;29.82;20.50;100869.19;5077743;28;1083;-37
2022/02/20 01:13:36;;;;;;;;;;;;;;;29.88;20.53;100855.88;5077972;28;781;-38
2022/02/20 01:16:01;;;;;;;;;;;;;;;30.20;20.37;100853.56;5077454;28;875;-38
2022/02/20 01:18:27;;;;;;;;;;;;;;;30.39;20.04;100851.97;5073784;28;942;-37
2022/02/20 01:20:52;;;;;;;;;;;;;;;30.12;20.49;100857.25;5077670;28;1898;-38
2022/02/20 01:23:17;;;;;;;;;;;;;;;29.99;20.67;100860.75;5077557;28;841;-38
2022/02/20 01:25:43;;;;;;;;;;;;;;;29.61;20.83;100858.41;5077681;28;817;-38
2022/02/20 01:28:08;;;;;;;;;;;;;;;29.81;20.91;100863.97;5077832;28;757;-38
2022/02/20 01:30:33;;;;;;;;;;;;;;;29.77;20.78;100866.25;5072735;28;1002;-38
2022/02/20 01:32:59;;;;;;;;;;;;;;;29.75;21.28;100872.88;5076534;28;1009;-37
2022/02/20 01:35:24;;;;;;;;;;;;;;;29.32;21.58;100869.19;5077224;28;794;-38
2022/02/20 01:37:49;;;;;;;;;;;;;;;29.31;21.69;100867.53;5077622;28;790;-37
2022/02/20 01:40:14;;;;;;;;;;;;;;;29.42;21.65;100871.56;5077363;28;1965;-37
2022/02/20 01:42:40;;;;;;;;;;;;;;;30.12;20.67;100867.25;5077213;28;889;-38
2022/02/20 01:45:06;;;;;;;;;;;;;;;30.47;20.17;100866.41;5073483;28;894;-38
2022/02/20 01:47:31;;;;;;;;;;;;;;;29.99;20.84;100866.16;5073327;28;1250;-37
2022/02/20 01:49:56;;;;;;;;;;;;;;;29.64;21.20;100858.00;5076972;28;869;-37
2022/02/20 01:52:22;;;;;;;;;;;;;;;29.52;21.57;100850.41;5077466;28;764;-37
2022/02/20 01:54:48;;;;;;;;;;;;;;;29.56;21.53;100846.25;5076679;28;929;-38
2022/02/20 01:57:13;;;;;;;;;;;;;;;29.51;21.64;100837.03;5070433;28;790;-38
2022/02/20 01:59:38;;;;;;;;;;;;;;;30.55;20.21;100847.22;5077228;28;785;-38
2022/02/20 02:02:04;;;;;;;;;;;;;;;30.58;20.67;100832.41;5074668;28;1969;-39
2022/02/20 02:04:29;;;;;;;;;;;;;;;30.20;20.48;100834.56;5076829;28;738;-38
2022/02/20 02:06:54;;;;;;;;;;;;;;;29.81;21.23;100837.69;5076842;28;1524;-38
2022/02/20 02:09:19;;;;;;;;;;;;;;;29.50;21.65;100841.63;5076258;28;1158;-38
2022/02/20 02:11:45;;;;;;;;;;;;;;;29.51;21.58;100850.59;5076632;28;1146;-38
2022/02/20 02:14:10;;;;;;;;;;;;;;;29.59;21.68;100855.91;5076416;28;825;-37
2022/02/20 02:16:35;;;;;;;;;;;;;;;29.76;21.45;100853.69;5074110;28;811;-38
2022/02/20 02:19:01;;;;;;;;;;;;;;;30.60;20.14;100862.88;5077516;28;826;-38
2022/02/20 02:21:26;;;;;;;;;;;;;;;30.57;20.27;100869.56;5076779;28;1967;-38
2022/02/20 02:23:52;;;;;;;;;;;;;;;29.99;20.78;100871.59;5069640;28;853;-38
2022/02/20 02:26:18;;;;;;;;;;;;;;;29.93;21.04;100866.94;5076810;28;919;-38
2022/02/20 02:28:43;;;;;;;;;;;;;;;30.39;20.46;100870.97;5076330;28;852;-38
2022/02/20 02:31:09;;;;;;;;;;;;;;;30.36;20.84;100876.81;5071590;28;887;-37
2022/02/20 02:33:35;;;;;;;;;;;;;;;30.08;20.67;100885.81;5076196;28;1100;-38
2022/02/20 02:36:00;;;;;;;;;;;;;;;29.70;21.38;100887.03;5076394;28;868;-37
2022/02/20 02:38:29;;;;;;;;;;;;;;;29.66;21.42;100881.16;5076600;28;833;-38
2022/02/20 02:41:04;;;;;;;;;;;;;;;29.60;21.43;100892.81;5076532;28;1960;-38
2022/02/20 02:43:29;;;;;;;;;;;;;;;29.41;21.80;100886.16;5076308;28;739;-38
2022/02/20 02:45:54;;;;;;;;;;;;;;;29.40;22.08;100877.19;5075469;28;896;-38
2022/02/20 02:48:20;;;;;;;;;;;;;;;30.21;20.60;100876.09;5076211;28;841;-37
2022/02/20 02:50:45;;;;;;;;;;;;;;;30.41;20.20;100881.63;5076214;28;1055;-40
2022/02/20 02:53:11;;;;;;;;;;;;;;;30.01;20.92;100891.19;5076449;28;890;-37
2022/02/20 02:55:36;;;;;;;;;;;;;;;29.66;21.68;100883.06;5076085;28;908;-38
2022/02/20 02:58:01;;;;;;;;;;;;;;;29.60;21.78;100881.97;5075939;28;810;-38
2022/02/20 03:00:28;;;;;;;;;;;;;;;29.64;21.83;100882.41;5074788;28;1899;-37
2022/02/20 03:02:54;;;;;;;;;;;;;;;30.51;20.23;100876.63;5076061;28;1480;-39
2022/02/20 03:05:19;;;;;;;;;;;;;;;30.62;20.11;100877.09;5076048;28;827;-38
2022/02/20 03:07:46;;;;;;;;;;;;;;;30.33;20.39;100868.25;5076371;28;901;-38
2022/02/20 03:10:11;;;;;;;;;;;;;;;30.01;20.85;100868.69;5075997;28;1008;-38
2022/02/20 03:12:37;;;;;;;;;;;;;;;29.75;21.63;100871.00;5074433;28;829;-37
2022/02/20 03:15:02;;;;;;;;;;;;;;;29.39;21.99;100880.94;5070742;28;820;-38
2022/02/20 03:17:28;;;;;;;;;;;;;;;29.36;22.00;100883.19;5070949;28;958;-38
2022/02/20 03:19:53;;;;;;;;;;;;;;;29.48;21.99;100894.34;5076056;28;1942;-37
2022/02/20 03:22:19;;;;;;;;;;;;;;;29.56;21.87;100905.88;5076250;28;829;-38
2022/02/20 03:24:44;;;;;;;;;;;;;;;30.18;21.13;100907.16;5075803;28;1048;-38
2022/02/20 03:27:10;;;;;;;;;;;;;;;30.65;20.24;100901.97;5075492;28;1032;-37
2022/02/20 03:29:35;;;;;;;;;;;;;;;30.40;20.48;100901.66;5076080;28;853;-38
2022/02/20 03:32:01;;;;;;;;;;;;;;;29.94;21.53;100898.47;5074993;28;1081;-39
2022/02/20 03:34:26;;;;;;;;;;;;;;;29.74;21.71;100895.63;5076127;28;833;-38
2022/02/20 03:36:51;;;;;;;;;;;;;;;30.28;20.78;100883.22;5076359;28;837;-37
2022/02/20 03:39:18;;;;;;;;;;;;;;;30.72;20.34;100893.00;5070175;28;849;-38
2022/02/20 03:41:43;;;;;;;;;;;;;;;30.52;20.53;100904.63;5075503;28;1898;-37
2022/02/20 03:44:09;;;;;;;;;;;;;;;30.37;20.49;100891.19;5075990;28;854;-36
2022/02/20 03:46:35;;;;;;;;;;;;;;;30.17;20.83;100887.34;5067363;28;972;-37
2022/02/20 03:49:00;;;;;;;;;;;;;;;29.76;21.49;100886.25;5075865;28;865;-37
2022/02/20 03:51:25;;;;;;;;;;;;;;;29.51;21.75;100899.38;5069965;28;1055;-38
2022/02/20 03:53:51;;;;;;;;;;;;;;;29.41;22.05;100899.72;5075652;28;833;-37
2022/02/20 03:56:16;;;;;;;;;;;;;;;29.16;21.37;100909.06;5075404;28;967;-38
2022/02/20 03:58:41;;;;;;;;;;;;;;;29.17;20.48;100909.91;5075952;28;753;-37
2022/02/20 04:01:06;;;;;;;;;;;;;;;29.35;20.08;100895.91;5074815;28;1939;-42
2022/02/20 04:03:33;;;;;;;;;;;;;;;28.80;17.14;100894.50;5071889;28;1560;-42
2022/02/20 04:05:58;;;;;;;;;;;;;;;28.14;17.16;100898.00;5070887;28;1276;-43
2022/02/20 04:08:23;;;;;;;;;;;;;;;28.60;19.32;100892.41;5075085;28;1241;-42
2022/02/20 04:10:49;;;;;;;;;;;;;;;29.06;18.76;100881.47;5075715;28;1241;-42
2022/02/20 04:13:14;;;;;;;;;;;;;;;29.18;18.32;100877.22;5078736;28;1229;-42
2022/02/20 04:15:39;;;;;;;;;;;;;;;29.11;18.01;100887.16;5075473;28;1253;-42
2022/02/20 04:18:05;;;;;;;;;;;;;;;29.21;17.94;100898.47;5074738;28;1261;-42
2022/02/20 04:20:30;;;;;;;;;;;;;;;29.25;17.61;100906.22;5078683;28;1893;-42
2022/02/20 04:22:55;;;;;;;;;;;;;;;28.33;17.46;100905.59;5077787;28;1158;-42
2022/02/20 04:25:20;;;;;;;;;;;;;;;27.80;18.03;100901.06;5078044;28;1146;-42
2022/02/20 04:27:46;;;;;;;;;;;;;;;28.51;18.54;100895.41;5079255;28;1103;-41
2022/02/20 04:30:13;;;;;;;;;;;;;;;28.87;18.08;100893.72;5072952;28;1032;-42
2022/02/20 04:32:39;;;;;;;;;;;;;;;29.11;17.86;100897.16;5077843;28;1134;-42
2022/02/20 04:35:04;;;;;;;;;;;;;;;29.05;17.57;100896.03;5078709;28;940;-42
2022/02/20 04:37:29;;;;;;;;;;;;;;;29.24;17.55;100891.84;5078431;28;823;-42
2022/02/20 04:39:55;;;;;;;;;;;;;;;28.67;17.33;100895.19;5078799;28;1961;-42
2022/02/20 04:42:20;;;;;;;;;;;;;;;28.17;18.29;100893.09;5076843;28;915;-42
2022/02/20 04:44:45;;;;;;;;;;;;;;;27.53;17.04;100887.09;5078477;28;940;-42
2022/02/20 04:47:11;;;;;;;;;;;;;;;27.69;18.10;100880.75;5076856;28;970;-43
2022/02/20 04:49:36;;;;;;;;;;;;;;;27.92;18.28;100870.88;5078652;28;805;-43
2022/02/20 04:52:03;;;;;;;;;;;;;;;28.02;18.12;100879.56;5077497;28;984;-44
2022/02/20 04:54:28;;;;;;;;;;;;;;;28.14;18.54;100877.22;5077537;28;908;-44
2022/02/20 04:56:54;;;;;;;;;;;;;;;28.28;18.52;100883.63;5073913;28;1539;-44
2022/02/20 04:59:19;;;;;;;;;;;;;;;28.68;18.19;100893.31;5072834;28;1540;-43
2022/02/20 05:01:45;;;;;;;;;;;;;;;28.62;17.84;100910.31;5069072;28;1898;-44
2022/02/20 05:04:10;;;;;;;;;;;;;;;28.50;17.31;100901.84;5078390;28;929;-43
2022/02/20 05:06:35;;;;;;;;;;;;;;;28.63;16.78;100891.19;5076513;28;896;-43
2022/02/20 05:09:01;;;;;;;;;;;;;;;28.73;16.37;100894.44;5076273;28;982;-43
2022/02/20 05:11:28;;;;;;;;;;;;;;;29.31;16.72;100910.88;5077958;28;1035;-41
2022/02/20 05:13:58;;;;;;;;;;;;;;;28.85;17.55;100905.59;5077249;28;884;-39
2022/02/20 05:16:23;;;;;;;;;;;;;;;28.07;18.26;100906.88;5077002;28;851;-40
2022/02/20 05:18:48;;;;;;;;;;;;;;;28.18;17.91;100897.44;5071057;28;1084;-39
2022/02/20 05:21:14;;;;;;;;;;;;;;;28.16;17.72;100894.09;5077016;28;1970;-40
2022/02/20 05:23:39;;;;;;;;;;;;;;;28.22;17.76;100904.19;5076906;28;825;-39
2022/02/20 05:26:04;;;;;;;;;;;;;;;28.82;17.20;100902.44;5077989;28;769;-40
2022/02/20 05:28:30;;;;;;;;;;;;;;;28.90;17.52;100906.88;5077503;28;840;-40
2022/02/20 05:30:55;;;;;;;;;;;;;;;29.07;17.21;100902.09;5077496;28;904;-41
2022/02/20 05:33:20;;;;;;;;;;;;;;;29.08;17.66;100909.19;5077399;28;1443;-39
2022/02/20 05:35:45;;;;;;;;;;;;;;;29.17;17.59;100910.75;5077551;28;824;-39
2022/02/20 05:38:11;;;;;;;;;;;;;;;29.02;18.04;100921.66;5077786;28;840;-40
2022/02/20 05:40:37;;;;;;;;;;;;;;;28.85;18.08;100932.69;5077431;28;1952;-42
2022/02/20 05:43:02;;;;;;;;;;;;;;;29.16;17.66;100933.44;5077524;28;824;-40
2022/02/20 05:45:27;;;;;;;;;;;;;;;29.02;17.99;100937.03;5075071;28;841;-38
2022/02/20 05:47:53;;;;;;;;;;;;;;;28.98;17.97;100938.47;5074617;28;833;-36
2022/02/20 05:50:18;;;;;;;;;;;;;;;29.11;18.03;100941.34;5077285;28;876;-40
2022/02/20 05:52:44;;;;;;;;;;;;;;;29.17;17.82;100945.13;5077243;28;877;-38
2022/02/20 05:55:09;;;;;;;;;;;;;;;29.28;17.62;100941.09;5077337;28;841;-40
2022/02/20 05:57:43;;;;;;;;;;;;;;;28.77;18.47;100940.06;5077212;28;809;-40
2022/02/20 06:00:09;;;;;;;;;;;;;;;28.30;18.90;100935.69;5076507;28;1951;-40
2022/02/20 06:02:35;;;;;;;;;;;;;;;28.73;18.38;100937.75;5076587;28;817;-40
2022/02/20 06:05:00;;;;;;;;;;;;;;;28.67;18.74;100952.03;5077693;28;1005;-39
2022/02/20 06:07:25;;;;;;;;;;;;;;;28.72;18.42;100959.59;5076912;28;948;-40
2022/02/20 06:09:51;;;;;;;;;;;;;;;28.80;18.59;100939.69;5077249;28;853;-40
2022/02/20 06:12:16;;;;;;;;;;;;;;;28.84;18.46;100941.00;5076742;28;1165;-40
2022/02/20 06:14:41;;;;;;;;;;;;;;;29.03;18.08;100934.16;5076723;28;992;-40
2022/02/20 06:17:06;;;;;;;;;;;;;;;28.56;18.69;100930.88;5075336;28;1032;-40
2022/02/20 06:19:32;;;;;;;;;;;;;;;28.84;18.22;100941.00;5076886;28;774;-39
2022/02/20 06:21:57;;;;;;;;;;;;;;;28.91;18.46;100949.19;5076479;28;1898;-39
2022/02/20 06:24:22;;;;;;;;;;;;;;;28.96;18.01;100950.28;5076324;28;1042;-39
2022/02/20 06:26:47;;;;;;;;;;;;;;;29.04;17.92;100946.66;5076395;28;913;-40
2022/02/20 06:29:13;;;;;;;;;;;;;;;29.15;17.95;100931.78;5076487;28;834;-40
2022/02/20 06:31:40;;;;;;;;;;;;;;;29.30;17.69;100939.00;5068664;28;1044;-39
2022/02/20 06:34:05;;;;;;;;;;;;;;;29.11;18.03;100929.66;5076733;28;811;-39
2022/02/20 06:36:31;;;;;;;;;;;;;;;28.71;18.34;100947.91;5073863;28;868;-40
2022/02/20 06:38:56;;;;;;;;;;;;;;;29.25;18.05;100938.72;5075182;28;813;-40
2022/02/20 06:41:21;;;;;;;;;;;;;;;29.17;18.14;100937.00;5076872;28;1963;-39
2022/02/20 06:43:46;;;;;;;;;;;;;;;29.30;17.74;100930.88;5076203;28;805;-40
2022/02/20 06:46:12;;;;;;;;;;;;;;;29.10;18.01;100928.81;5072169;28;891;-40
2022/02/20 06:48:37;;;;;;;;;;;;;;;28.77;18.19;100937.34;5076466;28;757;-39
2022/02/20 06:51:02;;;;;;;;;;;;;;;28.51;18.42;100947.66;5069479;28;882;-39
2022/02/20 06:53:28;;;;;;;;;;;;;;;28.35;18.50;100946.84;5076539;28;800;-39
2022/02/20 06:55:53;;;;;;;;;;;;;;;28.31;18.62;100953.59;5076641;28;816;-39
2022/02/20 06:58:19;;;;;;;;;;;;;;;28.22;18.75;100960.13;5075761;28;816;-39
2022/02/20 07:00:44;;;;;;;;;;;;;;;28.19;18.66;100958.66;5076011;28;1949;-39
2022/02/20 07:03:09;;;;;;;;;;;;;;;28.72;18.38;100957.72;5075567;28;917;-39
2022/02/20 07:05:34;;;;;;;;;;;;;;;28.82;18.37;100972.81;5076394;28;801;-38
2022/02/20 07:08:00;;;;;;;;;;;;;;;29.05;18.26;100975.44;5076042;28;924;-41
2022/02/20 07:10:26;;;;;;;;;;;;;;;29.20;18.05;100964.53;5076408;28;1012;-42
2022/02/20 07:12:51;;;;;;;;;;;;;;;28.85;18.36;100972.44;5075660;28;826;-40
2022/02/20 07:15:16;;;;;;;;;;;;;;;28.57;18.73;100973.13;5073654;28;846;-43
2022/02/20 07:17:42;;;;;;;;;;;;;;;28.32;18.86;100970.69;5076268;28;825;-40
2022/02/20 07:20:07;;;;;;;;;;;;;;;28.09;19.35;100967.00;5075855;28;1902;-40
2022/02/20 07:22:33;;;;;;;;;;;;;;;28.02;19.43;100965.22;5076546;28;821;-41
2022/02/20 07:24:58;;;;;;;;;;;;;;;28.43;19.05;100970.25;5076064;28;1059;-40
2022/02/20 07:27:23;;;;;;;;;;;;;;;28.77;18.33;100977.97;5074141;28;811;-40
2022/02/20 07:29:49;;;;;;;;;;;;;;;28.98;18.51;100979.09;5075023;28;818;-40
2022/02/20 07:32:14;;;;;;;;;;;;;;;29.04;18.39;100978.31;5075358;28;1019;-41
2022/02/20 07:34:39;;;;;;;;;;;;;;;29.14;18.56;100987.00;5075904;28;801;-42
2022/02/20 07:37:05;;;;;;;;;;;;;;;28.95;18.49;100997.38;5075718;28;884;-41
2022/02/20 07:39:30;;;;;;;;;;;;;;;28.79;18.83;101003.00;5075432;28;821;-42
2022/02/20 07:41:56;;;;;;;;;;;;;;;28.66;18.73;100999.06;5074993;28;1905;-42
2022/02/20 07:44:22;;;;;;;;;;;;;;;28.89;18.86;101014.38;5075590;28;928;-42
2022/02/20 07:46:47;;;;;;;;;;;;;;;28.85;18.87;101013.91;5074401;28;831;-41
2022/02/20 07:49:13;;;;;;;;;;;;;;;28.95;18.72;101010.06;5079142;28;848;-41
2022/02/20 07:51:38;;;;;;;;;;;;;;;29.29;18.55;101002.34;5078334;28;1130;-42
2022/02/20 07:54:03;;;;;;;;;;;;;;;29.39;17.90;101000.19;5078857;28;848;-41
2022/02/20 07:56:29;;;;;;;;;;;;;;;29.14;17.96;100987.00;5078948;28;801;-41
2022/02/20 07:58:54;;;;;;;;;;;;;;;28.90;18.22;100986.25;5077316;28;841;-40
2022/02/20 08:01:19;;;;;;;;;;;;;;;28.90;18.47;100985.41;5070585;28;1914;-38
2022/02/20 08:03:44;;;;;;;;;;;;;;;28.94;18.56;100978.59;5083475;28;847;-40
2022/02/20 08:06:10;;;;;;;;;;;;;;;28.80;18.69;100986.56;5077606;28;884;-40
2022/02/20 08:08:35;;;;;;;;;;;;;;;29.23;18.47;100982.28;5078501;28;867;-40
2022/02/20 08:11:01;;;;;;;;;;;;;;;29.29;17.94;100980.69;5078274;28;996;-39
2022/02/20 08:13:26;;;;;;;;;;;;;;;28.98;18.16;100976.38;5077835;28;794;-38
2022/02/20 08:15:52;;;;;;;;;;;;;;;28.66;18.73;100973.88;5072881;28;972;-39
2022/02/20 08:18:17;;;;;;;;;;;;;;;28.62;18.41;100970.72;5076521;28;825;-41
2022/02/20 08:20:44;;;;;;;;;;;;;;;28.65;19.04;100967.63;5076809;28;1898;-40
2022/02/20 08:23:09;;;;;;;;;;;;;;;28.69;19.03;100963.53;5077909;28;809;-40
2022/02/20 08:25:35;;;;;;;;;;;;;;;28.95;18.68;100962.16;5076559;28;810;-40
2022/02/20 08:28:00;;;;;;;;;;;;;;;29.16;18.45;100959.72;5077665;28;814;-40
2022/02/20 08:30:25;;;;;;;;;;;;;;;28.83;18.49;100955.53;5075901;28;848;-39
2022/02/20 08:32:50;;;;;;;;;;;;;;;28.73;18.67;100951.28;5074989;28;1130;-40
2022/02/20 08:35:16;;;;;;;;;;;;;;;28.52;18.89;100943.94;5077310;28;1115;-40
2022/02/20 08:37:46;;;;;;;;;;;;;;;28.33;19.04;100931.78;5077209;28;1174;-40
2022/02/20 08:40:12;;;;;;;;;;;;;;;28.57;19.33;100938.81;5078130;28;1929;-39
2022/02/20 08:42:37;;;;;;;;;;;;;;;28.62;19.27;100943.63;5077156;28;853;-39
2022/02/20 08:45:03;;;;;;;;;;;;;;;28.84;18.87;100941.00;5076708;28;830;-38
2022/02/20 08:47:28;;;;;;;;;;;;;;;29.05;18.55;100936.66;5075877;28;978;-38
2022/02/20 08:49:54;;;;;;;;;;;;;;;28.84;18.48;100949.13;5077296;28;1466;-39
2022/02/20 08:52:21;;;;;;;;;;;;;;;28.50;18.92;100958.66;5078085;28;944;-38
2022/02/20 08:54:46;;;;;;;;;;;;;;;28.31;19.04;100942.78;5077655;28;762;-39
2022/02/20 08:57:12;;;;;;;;;;;;;;;28.21;19.23;100950.34;5071410;28;833;-38
2022/02/20 08:59:37;;;;;;;;;;;;;;;28.43;19.33;100950.44;5077029;28;875;-39
2022/02/20 09:02:03;;;;;;;;;;;;;;;28.71;18.89;100950.63;5077369;28;1966;-39
2022/02/20 09:04:28;;;;;;;;;;;;;;;28.91;18.78;100954.59;5077325;28;757;-38
2022/02/20 09:06:53;;;;;;;;;;;;;;;29.12;18.52;100950.28;5076994;28;1123;-39
2022/02/20 09:09:21;;;;;;;;;;;;;;;28.57;19.40;100946.91;5077300;28;861;-41
2022/02/20 09:11:46;;;;;;;;;;;;;;;28.33;19.76;100945.31;5076589;28;1110;-41
2022/02/20 09:14:11;;;;;;;;;;;;;;;28.01;20.13;100933.81;5077448;28;886;-41
2022/02/20 09:16:36;;;;;;;;;;;;;;;28.16;20.00;100936.53;5076807;28;916;-42
2022/02/20 09:19:03;;;;;;;;;;;;;;;28.22;19.92;100935.78;5076891;28;810;-42
2022/02/20 09:21:29;;;;;;;;;;;;;;;28.58;19.61;100929.66;5076834;28;1894;-41
2022/02/20 09:23:54;;;;;;;;;;;;;;;28.76;19.58;100925.69;5077001;28;797;-42
2022/02/20 09:26:20;;;;;;;;;;;;;;;29.26;18.95;100925.00;5076544;28;860;-43
2022/02/20 09:28:45;;;;;;;;;;;;;;;29.11;18.95;100913.41;5076879;28;743;-42
2022/02/20 09:31:10;;;;;;;;;;;;;;;28.97;19.02;100910.53;5074099;28;1118;-42
2022/02/20 09:33:36;;;;;;;;;;;;;;;29.04;20.01;100913.31;5076315;28;1163;-42
2022/02/20 09:36:01;;;;;;;;;;;;;;;29.23;19.75;100908.31;5071300;28;1083;-42
2022/02/20 09:38:26;;;;;;;;;;;;;;;29.16;19.61;100908.25;5076830;28;794;-42
2022/02/20 09:40:51;;;;;;;;;;;;;;;29.34;18.85;100905.06;5075763;28;1985;-43
2022/02/20 09:43:17;;;;;;;;;;;;;;;29.23;18.77;100917.25;5076922;28;769;-42
2022/02/20 09:45:44;;;;;;;;;;;;;;;29.14;19.16;100916.56;5075581;28;817;-43
2022/02/20 09:48:09;;;;;;;;;;;;;;;29.21;19.09;100914.75;5071743;28;865;-42
2022/02/20 09:50:34;;;;;;;;;;;;;;;29.40;18.89;100909.72;5077198;28;757;-40
2022/02/20 09:53:00;;;;;;;;;;;;;;;29.16;19.33;100906.34;5076362;28;1462;-42
2022/02/20 09:55:25;;;;;;;;;;;;;;;29.07;19.72;100902.94;5074459;28;1081;-39
2022/02/20 09:57:50;;;;;;;;;;;;;;;29.11;19.69;100898.00;5076520;28;1273;-39
2022/02/20 10:00:17;;;;;;;;;;;;;;;29.58;18.94;100892.97;5074901;28;1913;-39
2022/02/20 10:02:44;;;;;;;;;;;;;;;29.51;18.52;100886.66;5070191;28;734;-40
2022/02/20 10:05:16;;;;;;;;;;;;;;;29.28;18.88;100892.31;5076514;28;761;-39
2022/02/20 10:07:41;;;;;;;;;;;;;;;29.23;19.41;100887.44;5076123;28;864;-40
2022/02/20 10:10:13;;;;;;;;;;;;;;;29.18;19.56;100888.03;5075583;28;1015;-41
2022/02/20 10:12:38;;;;;;;;;;;;;;;29.46;19.39;100884.53;5075694;28;773;-39
2022/02/20 10:15:04;;;;;;;;;;;;;;;29.64;18.75;100887.84;5075958;28;912;-41
2022/02/20 10:17:29;;;;;;;;;;;;;;;29.42;18.89;100885.97;5075420;28;893;-42
2022/02/20 10:19:58;;;;;;;;;;;;;;;29.40;19.02;100879.91;5076134;28;762;-42
2022/02/20 10:22:28;;;;;;;;;;;;;;;29.40;18.97;100873.63;5075398;28;1976;-42
2022/02/20 10:25:00;;;;;;;;;;;;;;;29.32;19.19;100863.78;5070862;28;1143;-41
2022/02/20 10:27:25;;;;;;;;;;;;;;;29.45;19.09;100858.47;5075558;28;828;-41
2022/02/20 10:30:00;;;;;;;;;;;;;;;29.54;18.94;100861.03;5075464;28;860;-42
2022/02/20 10:32:26;;;;;;;;;;;;;;;29.49;18.67;100853.50;5072094;28;1012;-41
2022/02/20 10:34:51;;;;;;;;;;;;;;;29.35;18.99;100849.84;5075416;28;757;-41
2022/02/20 10:37:16;;;;;;;;;;;;;;;29.42;19.20;100839.91;5074196;28;1239;-42
2022/02/20 10:39:43;;;;;;;;;;;;;;;29.57;18.72;100839.81;5071494;28;936;-41
2022/02/20 10:42:13;;;;;;;;;;;;;;;29.38;18.99;100833.19;5075434;28;1930;-41
2022/02/20 10:44:55;;;;;;;;;;;;;;;29.24;19.20;100821.41;5075299;28;1106;-41
2022/02/20 10:47:21;;;;;;;;;;;;;;;29.30;19.11;100817.06;5072066;28;1048;-41
2022/02/20 10:49:46;;;;;;;;;;;;;;;29.22;19.32;100796.38;5075563;28;1190;-41
2022/02/20 10:52:22;;;;;;;;;;;;;;;29.33;19.28;100789.59;5067511;28;865;-42
2022/02/20 10:55:03;;;;;;;;;;;;;;;29.27;19.00;100788.50;5075490;28;835;-42
2022/02/20 10:57:32;;;;;;;;;;;;;;;29.26;19.16;100781.41;5075182;28;790;-40
2022/02/20 10:59:58;;;;;;;;;;;;;;;29.07;19.46;100772.94;5075729;28;737;-40
2022/02/20 11:02:23;;;;;;;;;;;;;;;29.63;18.90;100767.72;5074525;28;2019;-40
2022/02/20 11:04:48;;;;;;;;;;;;;;;29.81;18.55;100775.31;5074139;28;773;-41
2022/02/20 11:07:16;;;;;;;;;;;;;;;29.50;18.90;100764.88;5075326;28;802;-40
2022/02/20 11:09:42;;;;;;;;;;;;;;;29.51;18.66;100753.03;5074844;28;749;-41
2022/02/20 11:12:08;;;;;;;;;;;;;;;29.75;18.16;100757.16;5075432;28;1057;-40
2022/02/20 11:14:33;;;;;;;;;;;;;;;29.64;18.02;100761.28;5073243;28;866;-41
2022/02/20 11:16:58;;;;;;;;;;;;;;;29.59;18.28;100747.47;5064388;28;835;-41
2022/02/20 11:19:24;;;;;;;;;;;;;;;29.54;18.34;100752.63;5073256;28;814;-41
2022/02/20 11:21:53;;;;;;;;;;;;;;;29.61;18.14;100752.69;5077104;28;1901;-41
2022/02/20 11:24:19;;;;;;;;;;;;;;;29.72;18.06;100751.28;5078751;28;880;-41
2022/02/20 11:26:44;;;;;;;;;;;;;;;29.68;17.93;100738.13;5078150;28;893;-41
2022/02/20 11:29:10;;;;;;;;;;;;;;;29.65;17.82;100741.25;5079524;28;805;-41
2022/02/20 11:31:35;;;;;;;;;;;;;;;29.62;18.00;100746.22;5077098;28;1275;-41
2022/02/20 11:34:01;;;;;;;;;;;;;;;29.89;17.76;100755.34;5079124;28;808;-41
2022/02/20 11:36:27;;;;;;;;;;;;;;;29.88;17.80;100750.13;5079228;28;835;-41
2022/02/20 11:39:12;;;;;;;;;;;;;;;29.93;17.53;100750.31;5074684;28;1115;-41
2022/02/20 11:41:38;;;;;;;;;;;;;;;29.66;18.20;100753.75;5077101;28;1910;-41
2022/02/20 11:44:10;;;;;;;;;;;;;;;29.50;18.13;100751.34;5078083;28;1234;-41
2022/02/20 11:46:44;;;;;;;;;;;;;;;29.40;18.21;100751.69;5076918;28;931;-42
2022/02/20 11:49:15;;;;;;;;;;;;;;;29.70;17.63;100746.91;5078755;28;876;-41
2022/02/20 11:51:46;;;;;;;;;;;;;;;29.65;17.33;100719.56;5078449;28;806;-41
2022/02/20 11:54:17;;;;;;;;;;;;;;;29.96;16.74;100757.25;5076912;28;1312;-41
2022/02/20 11:56:42;;;;;;;;;;;;;;;29.94;17.14;100754.72;5078192;28;922;-41
2022/02/20 11:59:14;;;;;;;;;;;;;;;29.94;16.97;100752.88;5078829;28;758;-41
2022/02/20 12:02:00;;;;;;;;;;;;;;;30.22;16.19;100756.53;5074030;28;1910;-41
2022/02/20 12:04:25;;;;;;;;;;;;;;;30.12;16.33;100747.91;5077963;28;1398;-41
2022/02/20 12:06:50;;;;;;;;;;;;;;;30.25;16.30;100745.25;5077340;28;733;-42
2022/02/20 12:09:22;;;;;;;;;;;;;;;30.63;15.67;100740.34;5077721;28;964;-41
2022/02/20 12:11:49;;;;;;;;;;;;;;;30.53;15.55;100744.28;5078627;28;948;-41
2022/02/20 12:14:24;;;;;;;;;;;;;;;30.35;15.70;100747.56;5078404;28;797;-41
2022/02/20 12:16:53;;;;;;;;;;;;;;;30.12;15.74;100751.47;5075655;28;840;-42
2022/02/20 12:19:23;;;;;;;;;;;;;;;30.57;15.40;100752.84;5077783;28;849;-41
2022/02/20 12:21:52;;;;;;;;;;;;;;;30.34;15.67;100761.34;5075601;28;1965;-42
2022/02/20 12:24:18;;;;;;;;;;;;;;;30.05;16.10;100753.31;5077922;28;845;-41
2022/02/20 12:26:47;;;;;;;;;;;;;;;29.89;16.27;100749.06;5077902;28;825;-42
2022/02/20 12:29:14;;;;;;;;;;;;;;;29.73;16.44;100744.84;5078099;28;789;-41
2022/02/20 12:31:58;;;;;;;;;;;;;;;29.51;16.66;100742.19;5074473;28;1172;-41
2022/02/20 12:34:42;;;;;;;;;;;;;;;29.46;16.63;100738.19;5072295;28;793;-41
2022/02/20 12:37:07;;;;;;;;;;;;;;;29.51;16.65;100731.34;5078413;28;841;-41
2022/02/20 12:39:33;;;;;;;;;;;;;;;29.31;16.63;100729.34;5076185;28;1345;-41
2022/02/20 12:42:02;;;;;;;;;;;;;;;29.37;16.65;100733.13;5075388;28;1922;-41
2022/02/20 12:44:27;;;;;;;;;;;;;;;29.24;16.84;100734.72;5075983;28;817;-41
2022/02/20 12:46:52;;;;;;;;;;;;;;;29.36;16.89;100731.47;5074947;28;990;-41